sensor_id;sensor_type;location;lat;lon;timestamp;P1;durP1;ratioP1;P2;durP2;ratioP2
17482;SDS011;8858;52.308;20.994;2023-03-23T00:01:06;27.13;;;21.20;;
17482;SDS011;8858;52.308;20.994;2023-03-23T00:03:35;31.73;;;23.30;;
17482;SDS011;8858;52.308;20.994;2023-03-23T00:06:05;28.57;;;22.80;;
17482;SDS011;8858;52.308;20.994;2023-03-23T00:08:35;29.97;;;23.00;;
17482;SDS011;8858;52.308;20.994;2023-03-23T00:11:15;29.17;;;23.13;;
17482;SDS011;8858;52.308;20.994;2023-03-23T00:13:45;24.43;;;21.80;;
17482;SDS011;8858;52.308;20.994;2023-03-23T00:16:17;29.07;;;22.70;;
17482;SDS011;8858;52.308;20.994;2023-03-23T00:18:46;31.77;;;22.60;;
17482;SDS011;8858;52.308;20.994;2023-03-23T00:21:19;29.17;;;23.07;;
17482;SDS011;8858;52.308;20.994;2023-03-23T00:23:54;31.37;;;23.50;;
17482;SDS011;8858;52.308;20.994;2023-03-23T00:26:22;30.10;;;22.47;;
17482;SDS011;8858;52.308;20.994;2023-03-23T00:28:50;45.00;;;37.03;;
17482;SDS011;8858;52.308;20.994;2023-03-23T00:31:18;36.03;;;27.03;;
17482;SDS011;8858;52.308;20.994;2023-03-23T00:33:46;31.23;;;23.23;;
17482;SDS011;8858;52.308;20.994;2023-03-23T00:36:14;28.57;;;23.37;;
17482;SDS011;8858;52.308;20.994;2023-03-23T00:38:44;30.73;;;22.63;;
17482;SDS011;8858;52.308;20.994;2023-03-23T00:41:13;28.50;;;23.60;;
17482;SDS011;8858;52.308;20.994;2023-03-23T00:43:42;33.13;;;22.50;;
17482;SDS011;8858;52.308;20.994;2023-03-23T00:46:10;29.00;;;23.30;;
17482;SDS011;8858;52.308;20.994;2023-03-23T00:48:38;30.57;;;22.93;;
17482;SDS011;8858;52.308;20.994;2023-03-23T00:51:10;30.80;;;23.50;;
17482;SDS011;8858;52.308;20.994;2023-03-23T00:53:39;28.60;;;23.73;;
17482;SDS011;8858;52.308;20.994;2023-03-23T00:56:08;30.43;;;23.37;;
17482;SDS011;8858;52.308;20.994;2023-03-23T00:58:35;31.13;;;23.03;;
17482;SDS011;8858;52.308;20.994;2023-03-23T01:01:06;27.70;;;22.40;;
17482;SDS011;8858;52.308;20.994;2023-03-23T01:03:35;29.83;;;22.90;;
17482;SDS011;8858;52.308;20.994;2023-03-23T01:06:04;29.13;;;22.73;;
17482;SDS011;8858;52.308;20.994;2023-03-23T01:08:34;28.90;;;23.13;;
17482;SDS011;8858;52.308;20.994;2023-03-23T01:11:05;31.73;;;24.13;;
17482;SDS011;8858;52.308;20.994;2023-03-23T01:13:35;28.07;;;22.77;;
17482;SDS011;8858;52.308;20.994;2023-03-23T01:16:03;29.20;;;22.33;;
17482;SDS011;8858;52.308;20.994;2023-03-23T01:18:31;27.63;;;22.27;;
17482;SDS011;8858;52.308;20.994;2023-03-23T01:21:02;29.17;;;23.63;;
17482;SDS011;8858;52.308;20.994;2023-03-23T01:23:31;27.30;;;21.67;;
17482;SDS011;8858;52.308;20.994;2023-03-23T01:26:03;26.00;;;21.53;;
17482;SDS011;8858;52.308;20.994;2023-03-23T01:28:33;25.33;;;20.77;;
17482;SDS011;8858;52.308;20.994;2023-03-23T01:31:02;27.63;;;20.93;;
17482;SDS011;8858;52.308;20.994;2023-03-23T01:33:35;29.73;;;21.00;;
17482;SDS011;8858;52.308;20.994;2023-03-23T01:36:05;24.60;;;20.97;;
17482;SDS011;8858;52.308;20.994;2023-03-23T01:38:34;24.47;;;19.93;;
17482;SDS011;8858;52.308;20.994;2023-03-23T01:41:03;27.77;;;20.90;;
17482;SDS011;8858;52.308;20.994;2023-03-23T01:43:30;63.47;;;47.83;;
17482;SDS011;8858;52.308;20.994;2023-03-23T01:45:59;24.63;;;20.57;;
17482;SDS011;8858;52.308;20.994;2023-03-23T01:48:27;27.87;;;20.73;;
17482;SDS011;8858;52.308;20.994;2023-03-23T01:50:59;24.20;;;20.07;;
17482;SDS011;8858;52.308;20.994;2023-03-23T01:53:33;24.70;;;20.73;;
17482;SDS011;8858;52.308;20.994;2023-03-23T01:56:06;24.20;;;19.90;;
17482;SDS011;8858;52.308;20.994;2023-03-23T01:58:38;23.87;;;19.67;;
17482;SDS011;8858;52.308;20.994;2023-03-23T02:01:08;24.50;;;20.17;;
17482;SDS011;8858;52.308;20.994;2023-03-23T02:03:41;23.57;;;18.80;;
17482;SDS011;8858;52.308;20.994;2023-03-23T02:06:14;25.87;;;20.00;;
17482;SDS011;8858;52.308;20.994;2023-03-23T02:09:00;25.07;;;20.30;;
17482;SDS011;8858;52.308;20.994;2023-03-23T02:11:30;23.97;;;19.67;;
17482;SDS011;8858;52.308;20.994;2023-03-23T02:13:59;26.00;;;19.27;;
17482;SDS011;8858;52.308;20.994;2023-03-23T02:16:32;25.40;;;19.53;;
17482;SDS011;8858;52.308;20.994;2023-03-23T02:19:09;25.20;;;20.03;;
17482;SDS011;8858;52.308;20.994;2023-03-23T02:22:00;25.87;;;19.97;;
17482;SDS011;8858;52.308;20.994;2023-03-23T02:24:56;24.67;;;19.77;;
17482;SDS011;8858;52.308;20.994;2023-03-23T02:30:39;23.90;;;19.40;;
17482;SDS011;8858;52.308;20.994;2023-03-23T02:33:39;23.07;;;18.67;;
17482;SDS011;8858;52.308;20.994;2023-03-23T02:36:16;24.00;;;19.47;;
17482;SDS011;8858;52.308;20.994;2023-03-23T02:38:54;24.43;;;18.70;;
17482;SDS011;8858;52.308;20.994;2023-03-23T02:41:28;23.63;;;19.30;;
17482;SDS011;8858;52.308;20.994;2023-03-23T02:43:58;24.73;;;18.30;;
17482;SDS011;8858;52.308;20.994;2023-03-23T02:46:32;23.57;;;18.43;;
17482;SDS011;8858;52.308;20.994;2023-03-23T02:49:03;24.13;;;18.53;;
17482;SDS011;8858;52.308;20.994;2023-03-23T02:51:36;21.73;;;18.43;;
17482;SDS011;8858;52.308;20.994;2023-03-23T02:54:05;22.07;;;18.27;;
17482;SDS011;8858;52.308;20.994;2023-03-23T02:56:34;23.90;;;18.20;;
17482;SDS011;8858;52.308;20.994;2023-03-23T02:59:09;22.43;;;18.57;;
17482;SDS011;8858;52.308;20.994;2023-03-23T03:01:54;21.63;;;18.40;;
17482;SDS011;8858;52.308;20.994;2023-03-23T03:04:33;23.50;;;17.60;;
17482;SDS011;8858;52.308;20.994;2023-03-23T03:07:13;20.73;;;17.67;;
17482;SDS011;8858;52.308;20.994;2023-03-23T03:09:58;22.13;;;17.30;;
17482;SDS011;8858;52.308;20.994;2023-03-23T03:12:31;22.87;;;17.40;;
17482;SDS011;8858;52.308;20.994;2023-03-23T03:15:06;24.10;;;18.10;;
17482;SDS011;8858;52.308;20.994;2023-03-23T03:17:44;22.20;;;17.83;;
17482;SDS011;8858;52.308;20.994;2023-03-23T03:20:19;22.67;;;17.87;;
17482;SDS011;8858;52.308;20.994;2023-03-23T03:22:48;21.80;;;17.43;;
17482;SDS011;8858;52.308;20.994;2023-03-23T03:25:19;22.77;;;17.77;;
17482;SDS011;8858;52.308;20.994;2023-03-23T03:27:51;22.07;;;17.47;;
17482;SDS011;8858;52.308;20.994;2023-03-23T03:30:30;20.10;;;16.60;;
17482;SDS011;8858;52.308;20.994;2023-03-23T03:33:00;23.77;;;17.83;;
17482;SDS011;8858;52.308;20.994;2023-03-23T03:35:31;23.80;;;17.80;;
17482;SDS011;8858;52.308;20.994;2023-03-23T03:38:06;22.00;;;17.83;;
17482;SDS011;8858;52.308;20.994;2023-03-23T03:40:34;21.17;;;17.03;;
17482;SDS011;8858;52.308;20.994;2023-03-23T03:43:02;21.90;;;17.83;;
17482;SDS011;8858;52.308;20.994;2023-03-23T03:45:34;23.20;;;17.30;;
17482;SDS011;8858;52.308;20.994;2023-03-23T03:48:01;21.07;;;17.07;;
17482;SDS011;8858;52.308;20.994;2023-03-23T03:50:31;19.37;;;16.77;;
17482;SDS011;8858;52.308;20.994;2023-03-23T03:52:59;23.10;;;16.60;;
17482;SDS011;8858;52.308;20.994;2023-03-23T03:55:26;22.30;;;16.00;;
17482;SDS011;8858;52.308;20.994;2023-03-23T03:57:54;19.77;;;16.23;;
17482;SDS011;8858;52.308;20.994;2023-03-23T04:00:26;21.67;;;16.50;;
17482;SDS011;8858;52.308;20.994;2023-03-23T04:02:53;22.70;;;16.57;;
17482;SDS011;8858;52.308;20.994;2023-03-23T04:05:37;18.83;;;15.50;;
17482;SDS011;8858;52.308;20.994;2023-03-23T04:08:04;22.83;;;16.63;;
17482;SDS011;8858;52.308;20.994;2023-03-23T04:10:31;24.10;;;15.77;;
17482;SDS011;8858;52.308;20.994;2023-03-23T04:13:00;21.93;;;16.40;;
17482;SDS011;8858;52.308;20.994;2023-03-23T04:15:48;19.57;;;15.40;;
17482;SDS011;8858;52.308;20.994;2023-03-23T04:18:16;20.40;;;15.97;;
17482;SDS011;8858;52.308;20.994;2023-03-23T04:20:49;18.13;;;15.17;;
17482;SDS011;8858;52.308;20.994;2023-03-23T04:23:19;18.30;;;15.67;;
17482;SDS011;8858;52.308;20.994;2023-03-23T04:25:50;18.80;;;15.37;;
17482;SDS011;8858;52.308;20.994;2023-03-23T04:28:19;20.33;;;15.70;;
17482;SDS011;8858;52.308;20.994;2023-03-23T04:31:10;17.47;;;15.27;;
17482;SDS011;8858;52.308;20.994;2023-03-23T04:33:43;20.60;;;16.43;;
17482;SDS011;8858;52.308;20.994;2023-03-23T04:36:13;21.73;;;15.77;;
17482;SDS011;8858;52.308;20.994;2023-03-23T04:38:52;22.13;;;16.07;;
17482;SDS011;8858;52.308;20.994;2023-03-23T04:41:22;22.97;;;15.77;;
17482;SDS011;8858;52.308;20.994;2023-03-23T04:44:01;20.27;;;15.70;;
17482;SDS011;8858;52.308;20.994;2023-03-23T04:46:36;21.30;;;14.97;;
17482;SDS011;8858;52.308;20.994;2023-03-23T04:49:08;18.57;;;14.90;;
17482;SDS011;8858;52.308;20.994;2023-03-23T04:51:39;19.70;;;16.00;;
17482;SDS011;8858;52.308;20.994;2023-03-23T04:54:15;19.63;;;15.43;;
17482;SDS011;8858;52.308;20.994;2023-03-23T04:56:48;19.27;;;15.47;;
17482;SDS011;8858;52.308;20.994;2023-03-23T04:59:15;26.30;;;15.17;;
17482;SDS011;8858;52.308;20.994;2023-03-23T05:01:58;21.60;;;15.40;;
17482;SDS011;8858;52.308;20.994;2023-03-23T05:04:26;22.30;;;15.43;;
17482;SDS011;8858;52.308;20.994;2023-03-23T05:07:11;18.53;;;14.20;;
17482;SDS011;8858;52.308;20.994;2023-03-23T05:09:46;20.03;;;14.97;;
17482;SDS011;8858;52.308;20.994;2023-03-23T05:12:16;18.77;;;13.87;;
17482;SDS011;8858;52.308;20.994;2023-03-23T05:14:51;22.50;;;15.33;;
17482;SDS011;8858;52.308;20.994;2023-03-23T05:17:24;20.07;;;14.53;;
17482;SDS011;8858;52.308;20.994;2023-03-23T05:19:54;19.30;;;14.80;;
17482;SDS011;8858;52.308;20.994;2023-03-23T05:22:50;18.50;;;14.53;;
17482;SDS011;8858;52.308;20.994;2023-03-23T05:25:24;16.43;;;14.17;;
17482;SDS011;8858;52.308;20.994;2023-03-23T05:28:04;17.97;;;14.40;;
17482;SDS011;8858;52.308;20.994;2023-03-23T05:30:48;21.47;;;14.83;;
17482;SDS011;8858;52.308;20.994;2023-03-23T05:33:18;22.83;;;14.47;;
17482;SDS011;8858;52.308;20.994;2023-03-23T05:36:08;22.47;;;14.37;;
17482;SDS011;8858;52.308;20.994;2023-03-23T05:39:02;17.93;;;14.00;;
17482;SDS011;8858;52.308;20.994;2023-03-23T05:41:58;17.43;;;14.53;;
17482;SDS011;8858;52.308;20.994;2023-03-23T05:44:34;18.87;;;14.60;;
17482;SDS011;8858;52.308;20.994;2023-03-23T05:47:02;19.73;;;14.47;;
17482;SDS011;8858;52.308;20.994;2023-03-23T05:49:37;18.63;;;13.73;;
17482;SDS011;8858;52.308;20.994;2023-03-23T05:52:07;16.70;;;14.30;;
17482;SDS011;8858;52.308;20.994;2023-03-23T05:54:36;20.37;;;14.37;;
17482;SDS011;8858;52.308;20.994;2023-03-23T05:57:03;20.23;;;14.20;;
17482;SDS011;8858;52.308;20.994;2023-03-23T05:59:43;17.07;;;13.40;;
17482;SDS011;8858;52.308;20.994;2023-03-23T06:02:20;18.23;;;13.10;;
17482;SDS011;8858;52.308;20.994;2023-03-23T06:04:49;17.60;;;13.77;;
17482;SDS011;8858;52.308;20.994;2023-03-23T06:07:26;18.77;;;13.93;;
17482;SDS011;8858;52.308;20.994;2023-03-23T06:10:00;17.73;;;13.63;;
17482;SDS011;8858;52.308;20.994;2023-03-23T06:12:35;21.53;;;13.63;;
17482;SDS011;8858;52.308;20.994;2023-03-23T06:15:22;16.80;;;12.87;;
17482;SDS011;8858;52.308;20.994;2023-03-23T06:17:59;20.03;;;13.63;;
17482;SDS011;8858;52.308;20.994;2023-03-23T06:20:35;17.43;;;12.87;;
17482;SDS011;8858;52.308;20.994;2023-03-23T06:23:19;19.30;;;13.00;;
17482;SDS011;8858;52.308;20.994;2023-03-23T06:25:52;19.20;;;13.60;;
17482;SDS011;8858;52.308;20.994;2023-03-23T06:28:24;18.40;;;13.70;;
17482;SDS011;8858;52.308;20.994;2023-03-23T06:30:53;21.13;;;12.97;;
17482;SDS011;8858;52.308;20.994;2023-03-23T06:33:21;20.00;;;13.30;;
17482;SDS011;8858;52.308;20.994;2023-03-23T06:36:11;16.63;;;13.00;;
17482;SDS011;8858;52.308;20.994;2023-03-23T06:38:48;18.33;;;13.13;;
17482;SDS011;8858;52.308;20.994;2023-03-23T06:41:21;15.43;;;12.30;;
17482;SDS011;8858;52.308;20.994;2023-03-23T06:43:51;19.40;;;12.30;;
17482;SDS011;8858;52.308;20.994;2023-03-23T06:46:25;15.13;;;12.00;;
17482;SDS011;8858;52.308;20.994;2023-03-23T06:49:16;18.53;;;12.20;;
17482;SDS011;8858;52.308;20.994;2023-03-23T06:51:50;15.80;;;11.93;;
17482;SDS011;8858;52.308;20.994;2023-03-23T06:54:17;17.37;;;11.83;;
17482;SDS011;8858;52.308;20.994;2023-03-23T06:56:45;18.47;;;12.20;;
17482;SDS011;8858;52.308;20.994;2023-03-23T06:59:13;16.70;;;11.50;;
17482;SDS011;8858;52.308;20.994;2023-03-23T07:01:41;21.97;;;11.93;;
17482;SDS011;8858;52.308;20.994;2023-03-23T07:04:12;17.73;;;11.67;;
17482;SDS011;8858;52.308;20.994;2023-03-23T07:06:49;17.20;;;11.30;;
17482;SDS011;8858;52.308;20.994;2023-03-23T07:09:17;18.93;;;11.77;;
17482;SDS011;8858;52.308;20.994;2023-03-23T07:11:46;20.53;;;11.30;;
17482;SDS011;8858;52.308;20.994;2023-03-23T07:14:22;15.50;;;10.73;;
17482;SDS011;8858;52.308;20.994;2023-03-23T07:16:50;19.07;;;11.27;;
17482;SDS011;8858;52.308;20.994;2023-03-23T07:19:17;13.90;;;11.27;;
17482;SDS011;8858;52.308;20.994;2023-03-23T07:21:45;17.53;;;11.87;;
17482;SDS011;8858;52.308;20.994;2023-03-23T07:24:13;14.17;;;11.73;;
17482;SDS011;8858;52.308;20.994;2023-03-23T07:27:04;13.77;;;10.87;;
17482;SDS011;8858;52.308;20.994;2023-03-23T07:29:32;17.67;;;10.93;;
17482;SDS011;8858;52.308;20.994;2023-03-23T07:32:08;17.20;;;10.87;;
17482;SDS011;8858;52.308;20.994;2023-03-23T07:34:38;14.03;;;10.70;;
17482;SDS011;8858;52.308;20.994;2023-03-23T07:37:15;15.57;;;10.70;;
17482;SDS011;8858;52.308;20.994;2023-03-23T07:39:46;16.83;;;11.20;;
17482;SDS011;8858;52.308;20.994;2023-03-23T07:42:15;15.40;;;10.70;;
17482;SDS011;8858;52.308;20.994;2023-03-23T07:44:49;14.20;;;10.30;;
17482;SDS011;8858;52.308;20.994;2023-03-23T07:47:16;16.33;;;10.30;;
17482;SDS011;8858;52.308;20.994;2023-03-23T07:49:46;15.43;;;9.87;;
17482;SDS011;8858;52.308;20.994;2023-03-23T07:52:43;13.77;;;9.17;;
17482;SDS011;8858;52.308;20.994;2023-03-23T07:55:11;13.23;;;9.37;;
17482;SDS011;8858;52.308;20.994;2023-03-23T07:58:06;12.27;;;8.40;;
17482;SDS011;8858;52.308;20.994;2023-03-23T08:00:34;10.43;;;8.60;;
17482;SDS011;8858;52.308;20.994;2023-03-23T08:03:05;16.57;;;8.47;;
17482;SDS011;8858;52.308;20.994;2023-03-23T08:05:57;16.80;;;8.53;;
17482;SDS011;8858;52.308;20.994;2023-03-23T08:08:48;12.20;;;8.30;;
17482;SDS011;8858;52.308;20.994;2023-03-23T08:11:34;15.17;;;7.63;;
17482;SDS011;8858;52.308;20.994;2023-03-23T08:14:09;15.57;;;7.57;;
17482;SDS011;8858;52.308;20.994;2023-03-23T08:16:59;13.17;;;6.50;;
17482;SDS011;8858;52.308;20.994;2023-03-23T08:19:26;8.73;;;6.80;;
17482;SDS011;8858;52.308;20.994;2023-03-23T08:22:16;9.27;;;6.60;;
17482;SDS011;8858;52.308;20.994;2023-03-23T08:25:07;10.77;;;6.50;;
17482;SDS011;8858;52.308;20.994;2023-03-23T08:27:53;11.20;;;6.10;;
17482;SDS011;8858;52.308;20.994;2023-03-23T08:30:37;9.20;;;6.23;;
17482;SDS011;8858;52.308;20.994;2023-03-23T08:33:25;12.43;;;6.50;;
17482;SDS011;8858;52.308;20.994;2023-03-23T08:36:00;12.80;;;5.70;;
17482;SDS011;8858;52.308;20.994;2023-03-23T08:38:52;9.20;;;6.27;;
17482;SDS011;8858;52.308;20.994;2023-03-23T08:41:39;7.67;;;5.50;;
17482;SDS011;8858;52.308;20.994;2023-03-23T08:44:36;6.87;;;6.00;;
17482;SDS011;8858;52.308;20.994;2023-03-23T08:47:24;11.50;;;5.77;;
17482;SDS011;8858;52.308;20.994;2023-03-23T08:50:10;9.73;;;6.10;;
17482;SDS011;8858;52.308;20.994;2023-03-23T08:53:03;8.37;;;5.87;;
17482;SDS011;8858;52.308;20.994;2023-03-23T08:55:55;6.53;;;5.70;;
17482;SDS011;8858;52.308;20.994;2023-03-23T08:59:01;11.60;;;5.70;;
17482;SDS011;8858;52.308;20.994;2023-03-23T09:01:39;9.57;;;5.50;;
17482;SDS011;8858;52.308;20.994;2023-03-23T09:04:25;8.47;;;5.27;;
17482;SDS011;8858;52.308;20.994;2023-03-23T09:07:28;11.93;;;5.57;;
17482;SDS011;8858;52.308;20.994;2023-03-23T09:09:55;9.03;;;5.17;;
17482;SDS011;8858;52.308;20.994;2023-03-23T09:12:23;10.67;;;5.60;;
17482;SDS011;8858;52.308;20.994;2023-03-23T09:14:50;8.67;;;5.13;;
17482;SDS011;8858;52.308;20.994;2023-03-23T09:17:17;8.30;;;5.50;;
17482;SDS011;8858;52.308;20.994;2023-03-23T09:19:45;10.60;;;5.63;;
17482;SDS011;8858;52.308;20.994;2023-03-23T09:22:14;11.77;;;5.43;;
17482;SDS011;8858;52.308;20.994;2023-03-23T09:24:45;8.43;;;5.17;;
17482;SDS011;8858;52.308;20.994;2023-03-23T09:27:12;10.20;;;4.70;;
17482;SDS011;8858;52.308;20.994;2023-03-23T09:29:40;12.53;;;5.53;;
17482;SDS011;8858;52.308;20.994;2023-03-23T09:32:09;6.80;;;4.43;;
17482;SDS011;8858;52.308;20.994;2023-03-23T09:34:42;7.27;;;4.60;;
17482;SDS011;8858;52.308;20.994;2023-03-23T09:37:11;9.10;;;4.63;;
17482;SDS011;8858;52.308;20.994;2023-03-23T09:39:42;6.23;;;4.80;;
17482;SDS011;8858;52.308;20.994;2023-03-23T09:42:12;6.33;;;4.37;;
17482;SDS011;8858;52.308;20.994;2023-03-23T09:44:55;11.00;;;4.07;;
17482;SDS011;8858;52.308;20.994;2023-03-23T09:47:36;7.32;;;4.30;;
17482;SDS011;8858;52.308;20.994;2023-03-23T09:50:09;8.07;;;4.60;;
17482;SDS011;8858;52.308;20.994;2023-03-23T09:52:41;9.65;;;4.15;;
17482;SDS011;8858;52.308;20.994;2023-03-23T09:55:17;5.97;;;3.92;;
17482;SDS011;8858;52.308;20.994;2023-03-23T09:57:47;5.43;;;3.92;;
17482;SDS011;8858;52.308;20.994;2023-03-23T10:00:23;7.65;;;4.20;;
17482;SDS011;8858;52.308;20.994;2023-03-23T10:02:55;5.55;;;4.07;;
17482;SDS011;8858;52.308;20.994;2023-03-23T10:05:31;5.45;;;4.00;;
17482;SDS011;8858;52.308;20.994;2023-03-23T10:08:02;7.53;;;3.92;;
17482;SDS011;8858;52.308;20.994;2023-03-23T10:10:42;7.00;;;4.32;;
17482;SDS011;8858;52.308;20.994;2023-03-23T10:13:35;7.95;;;3.90;;
17482;SDS011;8858;52.308;20.994;2023-03-23T10:16:14;8.40;;;3.92;;
17482;SDS011;8858;52.308;20.994;2023-03-23T10:18:47;7.97;;;3.75;;
17482;SDS011;8858;52.308;20.994;2023-03-23T10:21:20;5.38;;;3.45;;
17482;SDS011;8858;52.308;20.994;2023-03-23T10:23:54;5.35;;;2.85;;
17482;SDS011;8858;52.308;20.994;2023-03-23T10:26:31;6.50;;;3.15;;
17482;SDS011;8858;52.308;20.994;2023-03-23T10:29:08;9.23;;;3.45;;
17482;SDS011;8858;52.308;20.994;2023-03-23T10:31:41;8.80;;;3.00;;
17482;SDS011;8858;52.308;20.994;2023-03-23T10:34:13;11.05;;;2.80;;
17482;SDS011;8858;52.308;20.994;2023-03-23T10:36:50;5.07;;;2.60;;
17482;SDS011;8858;52.308;20.994;2023-03-23T10:39:26;4.97;;;2.95;;
17482;SDS011;8858;52.308;20.994;2023-03-23T10:41:56;4.40;;;3.05;;
17482;SDS011;8858;52.308;20.994;2023-03-23T10:44:32;5.95;;;3.10;;
17482;SDS011;8858;52.308;20.994;2023-03-23T10:47:01;3.35;;;2.60;;
17482;SDS011;8858;52.308;20.994;2023-03-23T10:49:32;2.92;;;2.50;;
17482;SDS011;8858;52.308;20.994;2023-03-23T10:52:05;10.50;;;2.80;;
17482;SDS011;8858;52.308;20.994;2023-03-23T10:54:49;4.35;;;2.92;;
17482;SDS011;8858;52.308;20.994;2023-03-23T10:57:21;4.50;;;2.97;;
17482;SDS011;8858;52.308;20.994;2023-03-23T10:59:50;6.55;;;3.30;;
17482;SDS011;8858;52.308;20.994;2023-03-23T11:02:18;8.02;;;3.30;;
17482;SDS011;8858;52.308;20.994;2023-03-23T11:05:16;4.72;;;3.60;;
17482;SDS011;8858;52.308;20.994;2023-03-23T11:07:51;4.55;;;3.50;;
17482;SDS011;8858;52.308;20.994;2023-03-23T11:10:23;10.32;;;3.70;;
17482;SDS011;8858;52.308;20.994;2023-03-23T11:12:56;3.30;;;2.63;;
17482;SDS011;8858;52.308;20.994;2023-03-23T11:15:27;6.78;;;2.60;;
17482;SDS011;8858;52.308;20.994;2023-03-23T11:17:57;5.15;;;2.50;;
17482;SDS011;8858;52.308;20.994;2023-03-23T11:20:25;7.57;;;2.72;;
17482;SDS011;8858;52.308;20.994;2023-03-23T11:25:52;4.03;;;2.60;;
17482;SDS011;8858;52.308;20.994;2023-03-23T11:28:25;2.88;;;2.30;;
17482;SDS011;8858;52.308;20.994;2023-03-23T11:30:56;6.30;;;3.63;;
17482;SDS011;8858;52.308;20.994;2023-03-23T11:33:31;3.83;;;2.80;;
17482;SDS011;8858;52.308;20.994;2023-03-23T11:36:04;3.00;;;2.80;;
17482;SDS011;8858;52.308;20.994;2023-03-23T11:38:39;5.45;;;2.40;;
17482;SDS011;8858;52.308;20.994;2023-03-23T11:41:10;5.75;;;2.88;;
17482;SDS011;8858;52.308;20.994;2023-03-23T11:43:39;5.47;;;2.65;;
17482;SDS011;8858;52.308;20.994;2023-03-23T11:46:11;3.00;;;2.58;;
17482;SDS011;8858;52.308;20.994;2023-03-23T11:48:44;8.27;;;2.70;;
17482;SDS011;8858;52.308;20.994;2023-03-23T11:51:20;3.70;;;2.40;;
17482;SDS011;8858;52.308;20.994;2023-03-23T11:53:55;4.22;;;2.97;;
17482;SDS011;8858;52.308;20.994;2023-03-23T11:56:29;3.47;;;2.55;;
17482;SDS011;8858;52.308;20.994;2023-03-23T11:58:59;3.65;;;2.35;;
17482;SDS011;8858;52.308;20.994;2023-03-23T12:01:34;4.75;;;2.90;;
17482;SDS011;8858;52.308;20.994;2023-03-23T12:07:06;3.00;;;2.20;;
17482;SDS011;8858;52.308;20.994;2023-03-23T12:09:43;3.67;;;2.28;;
17482;SDS011;8858;52.308;20.994;2023-03-23T12:12:26;4.03;;;2.03;;
17482;SDS011;8858;52.308;20.994;2023-03-23T12:15:06;2.63;;;2.42;;
17482;SDS011;8858;52.308;20.994;2023-03-23T12:17:51;4.72;;;2.65;;
17482;SDS011;8858;52.308;20.994;2023-03-23T12:20:31;4.65;;;2.30;;
17482;SDS011;8858;52.308;20.994;2023-03-23T12:23:08;5.70;;;2.60;;
17482;SDS011;8858;52.308;20.994;2023-03-23T12:28:56;12.20;;;2.97;;
17482;SDS011;8858;52.308;20.994;2023-03-23T12:31:43;3.17;;;2.42;;
17482;SDS011;8858;52.308;20.994;2023-03-23T12:34:21;3.28;;;2.22;;
17482;SDS011;8858;52.308;20.994;2023-03-23T12:37:01;5.40;;;2.60;;
17482;SDS011;8858;52.308;20.994;2023-03-23T12:39:55;4.13;;;2.55;;
17482;SDS011;8858;52.308;20.994;2023-03-23T12:42:47;3.75;;;2.72;;
17482;SDS011;8858;52.308;20.994;2023-03-23T12:45:25;4.38;;;2.47;;
17482;SDS011;8858;52.308;20.994;2023-03-23T12:48:10;2.60;;;2.30;;
17482;SDS011;8858;52.308;20.994;2023-03-23T12:50:43;3.65;;;2.30;;
17482;SDS011;8858;52.308;20.994;2023-03-23T12:53:16;3.70;;;2.22;;
17482;SDS011;8858;52.308;20.994;2023-03-23T12:55:49;4.68;;;2.67;;
17482;SDS011;8858;52.308;20.994;2023-03-23T12:58:20;5.80;;;2.75;;
17482;SDS011;8858;52.308;20.994;2023-03-23T13:00:55;4.88;;;2.80;;
17482;SDS011;8858;52.308;20.994;2023-03-23T13:03:27;4.03;;;2.78;;
17482;SDS011;8858;52.308;20.994;2023-03-23T13:06:00;5.70;;;2.72;;
17482;SDS011;8858;52.308;20.994;2023-03-23T13:08:33;6.20;;;3.33;;
17482;SDS011;8858;52.308;20.994;2023-03-23T13:11:04;3.55;;;2.95;;
17482;SDS011;8858;52.308;20.994;2023-03-23T13:13:41;3.47;;;3.15;;
17482;SDS011;8858;52.308;20.994;2023-03-23T13:16:16;3.40;;;3.10;;
17482;SDS011;8858;52.308;20.994;2023-03-23T13:18:52;5.30;;;2.67;;
17482;SDS011;8858;52.308;20.994;2023-03-23T13:21:27;5.40;;;3.00;;
17482;SDS011;8858;52.308;20.994;2023-03-23T13:23:58;4.43;;;2.58;;
17482;SDS011;8858;52.308;20.994;2023-03-23T13:26:30;8.32;;;3.67;;
17482;SDS011;8858;52.308;20.994;2023-03-23T13:28:58;4.65;;;3.25;;
17482;SDS011;8858;52.308;20.994;2023-03-23T13:31:33;4.60;;;3.03;;
17482;SDS011;8858;52.308;20.994;2023-03-23T13:34:03;3.60;;;2.95;;
17482;SDS011;8858;52.308;20.994;2023-03-23T13:36:34;9.45;;;4.10;;
17482;SDS011;8858;52.308;20.994;2023-03-23T13:39:04;5.22;;;3.17;;
17482;SDS011;8858;52.308;20.994;2023-03-23T13:41:34;7.88;;;3.60;;
17482;SDS011;8858;52.308;20.994;2023-03-23T13:44:17;6.47;;;3.25;;
17482;SDS011;8858;52.308;20.994;2023-03-23T13:47:06;4.30;;;2.95;;
17482;SDS011;8858;52.308;20.994;2023-03-23T13:49:44;5.35;;;2.67;;
17482;SDS011;8858;52.308;20.994;2023-03-23T13:52:15;9.02;;;3.38;;
17482;SDS011;8858;52.308;20.994;2023-03-23T13:54:46;4.43;;;2.78;;
17482;SDS011;8858;52.308;20.994;2023-03-23T13:57:20;6.07;;;2.67;;
17482;SDS011;8858;52.308;20.994;2023-03-23T13:59:55;7.28;;;2.67;;
17482;SDS011;8858;52.308;20.994;2023-03-23T14:02:30;4.38;;;2.55;;
17482;SDS011;8858;52.308;20.994;2023-03-23T14:08:03;3.22;;;2.53;;
17482;SDS011;8858;52.308;20.994;2023-03-23T14:10:39;12.93;;;2.80;;
17482;SDS011;8858;52.308;20.994;2023-03-23T14:13:11;15.05;;;2.60;;
17482;SDS011;8858;52.308;20.994;2023-03-23T14:15:44;7.63;;;2.92;;
17482;SDS011;8858;52.308;20.994;2023-03-23T14:18:23;12.00;;;2.95;;
17482;SDS011;8858;52.308;20.994;2023-03-23T14:20:55;6.35;;;3.10;;
17482;SDS011;8858;52.308;20.994;2023-03-23T14:23:24;7.75;;;2.92;;
17482;SDS011;8858;52.308;20.994;2023-03-23T14:25:54;4.85;;;2.80;;
17482;SDS011;8858;52.308;20.994;2023-03-23T14:28:30;6.63;;;3.05;;
17482;SDS011;8858;52.308;20.994;2023-03-23T14:30:58;14.77;;;3.60;;
17482;SDS011;8858;52.308;20.994;2023-03-23T14:33:27;5.95;;;3.10;;
17482;SDS011;8858;52.308;20.994;2023-03-23T14:35:54;7.43;;;3.28;;
17482;SDS011;8858;52.308;20.994;2023-03-23T14:38:24;10.07;;;4.07;;
17482;SDS011;8858;52.308;20.994;2023-03-23T14:41:00;7.57;;;3.53;;
17482;SDS011;8858;52.308;20.994;2023-03-23T14:43:30;6.18;;;3.15;;
17482;SDS011;8858;52.308;20.994;2023-03-23T14:46:00;8.10;;;3.92;;
17482;SDS011;8858;52.308;20.994;2023-03-23T14:48:37;4.10;;;3.42;;
17482;SDS011;8858;52.308;20.994;2023-03-23T14:51:06;5.57;;;3.17;;
17482;SDS011;8858;52.308;20.994;2023-03-23T14:53:35;7.63;;;4.07;;
17482;SDS011;8858;52.308;20.994;2023-03-23T14:56:09;4.60;;;3.83;;
17482;SDS011;8858;52.308;20.994;2023-03-23T14:58:38;7.40;;;4.60;;
17482;SDS011;8858;52.308;20.994;2023-03-23T15:01:12;7.57;;;3.97;;
17482;SDS011;8858;52.308;20.994;2023-03-23T15:03:46;6.10;;;3.47;;
17482;SDS011;8858;52.308;20.994;2023-03-23T15:06:19;4.20;;;3.80;;
17482;SDS011;8858;52.308;20.994;2023-03-23T15:08:51;7.65;;;3.90;;
17482;SDS011;8858;52.308;20.994;2023-03-23T15:11:22;7.75;;;4.00;;
17482;SDS011;8858;52.308;20.994;2023-03-23T15:13:52;4.03;;;3.50;;
17482;SDS011;8858;52.308;20.994;2023-03-23T15:16:25;7.32;;;4.30;;
17482;SDS011;8858;52.308;20.994;2023-03-23T15:18:55;5.60;;;4.20;;
17482;SDS011;8858;52.308;20.994;2023-03-23T15:21:27;7.73;;;4.43;;
17482;SDS011;8858;52.308;20.994;2023-03-23T15:23:56;5.65;;;3.60;;
17482;SDS011;8858;52.308;20.994;2023-03-23T15:29:16;4.17;;;3.20;;
17482;SDS011;8858;52.308;20.994;2023-03-23T15:31:48;8.80;;;3.45;;
17482;SDS011;8858;52.308;20.994;2023-03-23T15:34:24;4.27;;;3.23;;